sensor_id;sensor_type;location;lat;lon;timestamp;pressure;altitude;pressure_sealevel;temperature;humidity
69058;BME280;56128;37.534;-122.308;2023-02-18T00:00:58;101610.81;;;13.25;37.02
69058;BME280;56128;37.534;-122.308;2023-02-18T00:03:26;101615.50;;;13.35;35.85
69058;BME280;56128;37.534;-122.308;2023-02-18T00:05:53;101612.44;;;13.28;36.30
69058;BME280;56128;37.534;-122.308;2023-02-18T00:08:20;101616.06;;;13.27;37.66
69058;BME280;56128;37.534;-122.308;2023-02-18T00:10:47;101609.50;;;13.31;35.67
69058;BME280;56128;37.534;-122.308;2023-02-18T00:13:14;101606.53;;;13.23;37.54
69058;BME280;56128;37.534;-122.308;2023-02-18T00:15:40;101606.41;;;13.24;37.82
69058;BME280;56128;37.534;-122.308;2023-02-18T00:18:07;101604.31;;;13.17;35.91
69058;BME280;56128;37.534;-122.308;2023-02-18T00:20:33;101597.59;;;13.22;36.68
69058;BME280;56128;37.534;-122.308;2023-02-18T00:23:02;101604.31;;;13.17;36.72
69058;BME280;56128;37.534;-122.308;2023-02-18T00:25:28;101596.19;;;13.29;34.40
69058;BME280;56128;37.534;-122.308;2023-02-18T00:27:54;101591.25;;;13.23;34.38
69058;BME280;56128;37.534;-122.308;2023-02-18T00:30:20;101602.25;;;13.20;35.07
69058;BME280;56128;37.534;-122.308;2023-02-18T00:32:47;101599.19;;;13.25;34.53
69058;BME280;56128;37.534;-122.308;2023-02-18T00:35:13;101592.34;;;13.21;35.04
69058;BME280;56128;37.534;-122.308;2023-02-18T00:37:39;101593.19;;;13.21;33.58
69058;BME280;56128;37.534;-122.308;2023-02-18T00:40:06;101600.91;;;13.26;32.93
69058;BME280;56128;37.534;-122.308;2023-02-18T00:42:33;101595.66;;;13.24;32.72
69058;BME280;56128;37.534;-122.308;2023-02-18T00:44:59;101598.47;;;13.23;34.00
69058;BME280;56128;37.534;-122.308;2023-02-18T00:47:25;101596.25;;;13.17;34.56
69058;BME280;56128;37.534;-122.308;2023-02-18T00:49:51;101596.44;;;13.13;33.58
69058;BME280;56128;37.534;-122.308;2023-02-18T00:52:17;101597.97;;;13.18;33.00
69058;BME280;56128;37.534;-122.308;2023-02-18T00:54:43;101592.16;;;13.11;34.32
69058;BME280;56128;37.534;-122.308;2023-02-18T00:57:10;101587.13;;;13.06;33.76
69058;BME280;56128;37.534;-122.308;2023-02-18T00:59:36;101583.28;;;12.97;33.66
69058;BME280;56128;37.534;-122.308;2023-02-18T01:02:02;101592.34;;;12.83;33.89
69058;BME280;56128;37.534;-122.308;2023-02-18T01:04:28;101590.97;;;12.78;33.59
69058;BME280;56128;37.534;-122.308;2023-02-18T01:06:55;101580.59;;;12.60;34.41
69058;BME280;56128;37.534;-122.308;2023-02-18T01:09:21;101577.34;;;12.68;34.74
69058;BME280;56128;37.534;-122.308;2023-02-18T01:11:50;101576.50;;;12.68;33.63
69058;BME280;56128;37.534;-122.308;2023-02-18T01:14:16;101570.50;;;12.51;34.83
69058;BME280;56128;37.534;-122.308;2023-02-18T01:16:42;101578.72;;;12.24;37.32
69058;BME280;56128;37.534;-122.308;2023-02-18T01:19:09;101584.16;;;12.09;36.96
69058;BME280;56128;37.534;-122.308;2023-02-18T01:21:35;101578.53;;;11.86;38.15
69058;BME280;56128;37.534;-122.308;2023-02-18T01:24:01;101578.97;;;11.80;35.76
69058;BME280;56128;37.534;-122.308;2023-02-18T01:26:28;101583.34;;;11.68;40.07
69058;BME280;56128;37.534;-122.308;2023-02-18T01:28:54;101589.19;;;11.48;39.83
69058;BME280;56128;37.534;-122.308;2023-02-18T01:31:20;101587.84;;;11.28;41.41
69058;BME280;56128;37.534;-122.308;2023-02-18T01:33:46;101586.47;;;11.08;43.04
69058;BME280;56128;37.534;-122.308;2023-02-18T01:36:12;101586.59;;;10.92;44.37
69058;BME280;56128;37.534;-122.308;2023-02-18T01:38:39;101587.69;;;10.75;44.64
69058;BME280;56128;37.534;-122.308;2023-02-18T01:41:05;101590.69;;;10.55;46.50
69058;BME280;56128;37.534;-122.308;2023-02-18T01:43:32;101596.69;;;10.45;46.69
69058;BME280;56128;37.534;-122.308;2023-02-18T01:49:00;101592.94;;;10.04;48.97
69058;BME280;56128;37.534;-122.308;2023-02-18T01:51:42;101592.53;;;9.96;49.92
69058;BME280;56128;37.534;-122.308;2023-02-18T01:56:56;101600.03;;;9.58;50.91
69058;BME280;56128;37.534;-122.308;2023-02-18T01:59:30;101608.97;;;9.43;50.50
69058;BME280;56128;37.534;-122.308;2023-02-18T02:01:57;101614.25;;;9.29;51.83
69058;BME280;56128;37.534;-122.308;2023-02-18T02:04:25;101612.53;;;9.12;53.00
69058;BME280;56128;37.534;-122.308;2023-02-18T02:06:51;101611.50;;;8.98;53.02
69058;BME280;56128;37.534;-122.308;2023-02-18T02:09:19;101614.59;;;8.90;53.25
69058;BME280;56128;37.534;-122.308;2023-02-18T02:31:36;101625.22;;;7.72;58.36
69058;BME280;56128;37.534;-122.308;2023-02-18T02:34:28;101627.78;;;7.56;59.25
69058;BME280;56128;37.534;-122.308;2023-02-18T02:37:15;101625.59;;;7.47;58.79
69058;BME280;56128;37.534;-122.308;2023-02-18T02:40:06;101625.25;;;7.36;60.92
69058;BME280;56128;37.534;-122.308;2023-02-18T02:45:20;101635.34;;;7.10;63.42
69058;BME280;56128;37.534;-122.308;2023-02-18T02:48:09;101640.97;;;7.04;63.22
69058;BME280;56128;37.534;-122.308;2023-02-18T02:51:08;101636.38;;;6.88;64.08
69058;BME280;56128;37.534;-122.308;2023-02-18T02:53:36;101632.97;;;6.85;64.13
69058;BME280;56128;37.534;-122.308;2023-02-18T02:56:04;101623.63;;;6.76;64.89
69058;BME280;56128;37.534;-122.308;2023-02-18T02:58:31;101632.91;;;6.67;65.73
69058;BME280;56128;37.534;-122.308;2023-02-18T03:01:05;101629.75;;;6.59;68.33
69058;BME280;56128;37.534;-122.308;2023-02-18T03:09:31;101636.28;;;6.31;71.85
69058;BME280;56128;37.534;-122.308;2023-02-18T03:14:50;101645.09;;;6.12;75.27
69058;BME280;56128;37.534;-122.308;2023-02-18T03:17:30;101647.31;;;6.01;77.65
69058;BME280;56128;37.534;-122.308;2023-02-18T03:20:24;101645.09;;;5.90;78.55
69058;BME280;56128;37.534;-122.308;2023-02-18T03:22:53;101650.59;;;5.85;79.34
69058;BME280;56128;37.534;-122.308;2023-02-18T03:25:22;101660.47;;;5.82;80.31
69058;BME280;56128;37.534;-122.308;2023-02-18T03:27:56;101660.63;;;5.79;80.96
69058;BME280;56128;37.534;-122.308;2023-02-18T03:30:32;101659.03;;;5.75;81.09
69058;BME280;56128;37.534;-122.308;2023-02-18T03:33:03;101663.59;;;5.71;84.78
69058;BME280;56128;37.534;-122.308;2023-02-18T03:35:30;101670.81;;;5.67;86.30
69058;BME280;56128;37.534;-122.308;2023-02-18T03:38:08;101662.31;;;5.59;87.43
69058;BME280;56128;37.534;-122.308;2023-02-18T03:40:37;101664.88;;;5.61;88.66
69058;BME280;56128;37.534;-122.308;2023-02-18T03:43:03;101662.44;;;5.56;89.20
69058;BME280;56128;37.534;-122.308;2023-02-18T03:45:30;101660.03;;;5.50;92.23
69058;BME280;56128;37.534;-122.308;2023-02-18T03:47:56;101667.13;;;5.49;92.51
69058;BME280;56128;37.534;-122.308;2023-02-18T03:50:22;101662.78;;;5.47;93.39
69058;BME280;56128;37.534;-122.308;2023-02-18T03:52:49;101663.72;;;5.46;97.57
69058;BME280;56128;37.534;-122.308;2023-02-18T03:55:15;101665.53;;;5.45;98.08
69058;BME280;56128;37.534;-122.308;2023-02-18T03:57:42;101671.75;;;5.44;98.17
69058;BME280;56128;37.534;-122.308;2023-02-18T04:00:09;101655.97;;;5.41;98.68
69058;BME280;56128;37.534;-122.308;2023-02-18T04:02:56;101668.34;;;5.41;98.72
69058;BME280;56128;37.534;-122.308;2023-02-18T04:05:22;101668.59;;;5.34;99.83
69058;BME280;56128;37.534;-122.308;2023-02-18T04:07:48;101680.94;;;5.35;99.00
69058;BME280;56128;37.534;-122.308;2023-02-18T04:10:15;101677.50;;;5.33;98.37
69058;BME280;56128;37.534;-122.308;2023-02-18T04:12:41;101678.53;;;5.29;99.01
69058;BME280;56128;37.534;-122.308;2023-02-18T04:15:08;101680.44;;;5.26;100.00
69058;BME280;56128;37.534;-122.308;2023-02-18T04:17:34;101687.53;;;5.25;100.00
69058;BME280;56128;37.534;-122.308;2023-02-18T04:20:00;101686.63;;;5.26;100.00
69058;BME280;56128;37.534;-122.308;2023-02-18T04:22:28;101688.53;;;5.23;100.00
69058;BME280;56128;37.534;-122.308;2023-02-18T04:24:54;101679.75;;;5.20;100.00
69058;BME280;56128;37.534;-122.308;2023-02-18T04:27:20;101671.94;;;5.17;100.00
69058;BME280;56128;37.534;-122.308;2023-02-18T04:29:46;101688.69;;;5.18;100.00
69058;BME280;56128;37.534;-122.308;2023-02-18T04:32:13;101686.19;;;5.15;100.00
69058;BME280;56128;37.534;-122.308;2023-02-18T04:34:39;101696.72;;;5.16;100.00
69058;BME280;56128;37.534;-122.308;2023-02-18T04:37:05;101680.97;;;5.12;100.00
69058;BME280;56128;37.534;-122.308;2023-02-18T04:39:34;101696.97;;;5.10;100.00
69058;BME280;56128;37.534;-122.308;2023-02-18T04:42:00;101697.94;;;5.08;100.00
69058;BME280;56128;37.534;-122.308;2023-02-18T04:44:26;101694.69;;;4.99;100.00
69058;BME280;56128;37.534;-122.308;2023-02-18T04:46:52;101701.00;;;4.97;100.00
69058;BME280;56128;37.534;-122.308;2023-02-18T04:49:18;101700.28;;;4.93;100.00
69058;BME280;56128;37.534;-122.308;2023-02-18T04:51:45;101701.22;;;4.91;100.00
69058;BME280;56128;37.534;-122.308;2023-02-18T04:54:11;101708.47;;;4.85;100.00
69058;BME280;56128;37.534;-122.308;2023-02-18T04:56:40;101712.94;;;4.85;100.00
69058;BME280;56128;37.534;-122.308;2023-02-18T04:59:06;101711.19;;;4.84;100.00
69058;BME280;56128;37.534;-122.308;2023-02-18T05:01:32;101710.44;;;4.80;100.00
69058;BME280;56128;37.534;-122.308;2023-02-18T05:03:59;101715.00;;;4.77;100.00
69058;BME280;56128;37.534;-122.308;2023-02-18T05:06:25;101723.91;;;4.76;100.00
69058;BME280;56128;37.534;-122.308;2023-02-18T05:08:51;101720.50;;;4.70;100.00
69058;BME280;56128;37.534;-122.308;2023-02-18T05:11:17;101730.13;;;4.75;100.00
69058;BME280;56128;37.534;-122.308;2023-02-18T05:13:43;101726.75;;;4.69;100.00
69058;BME280;56128;37.534;-122.308;2023-02-18T05:16:10;101723.28;;;4.67;100.00
69058;BME280;56128;37.534;-122.308;2023-02-18T05:18:36;101725.09;;;4.67;100.00
69058;BME280;56128;37.534;-122.308;2023-02-18T05:21:02;101734.81;;;4.66;100.00
69058;BME280;56128;37.534;-122.308;2023-02-18T05:23:28;101731.53;;;4.60;100.00
69058;BME280;56128;37.534;-122.308;2023-02-18T05:25:55;101730.75;;;4.56;100.00
69058;BME280;56128;37.534;-122.308;2023-02-18T05:28:21;101742.97;;;4.60;100.00
69058;BME280;56128;37.534;-122.308;2023-02-18T05:30:47;101728.22;;;4.53;100.00
69058;BME280;56128;37.534;-122.308;2023-02-18T05:33:14;101733.63;;;4.50;100.00
69058;BME280;56128;37.534;-122.308;2023-02-18T05:35:40;101730.22;;;4.46;100.00
69058;BME280;56128;37.534;-122.308;2023-02-18T05:38:06;101740.00;;;4.44;100.00
69058;BME280;56128;37.534;-122.308;2023-02-18T05:40:37;101739.25;;;4.41;100.00
69058;BME280;56128;37.534;-122.308;2023-02-18T05:43:03;101744.66;;;4.37;100.00
69058;BME280;56128;37.534;-122.308;2023-02-18T05:45:30;101742.06;;;4.36;100.00
69058;BME280;56128;37.534;-122.308;2023-02-18T05:47:56;101743.94;;;4.32;100.00
69058;BME280;56128;37.534;-122.308;2023-02-18T05:50:22;101746.81;;;4.26;100.00
69058;BME280;56128;37.534;-122.308;2023-02-18T05:52:48;101752.22;;;4.23;100.00
69058;BME280;56128;37.534;-122.308;2023-02-18T05:55:15;101749.78;;;4.17;100.00
69058;BME280;56128;37.534;-122.308;2023-02-18T05:57:41;101751.72;;;4.12;100.00
69058;BME280;56128;37.534;-122.308;2023-02-18T06:00:08;101757.09;;;4.09;100.00
69058;BME280;56128;37.534;-122.308;2023-02-18T06:02:35;101752.00;;;4.02;100.00
69058;BME280;56128;37.534;-122.308;2023-02-18T06:05:02;101746.91;;;3.96;100.00
69058;BME280;56128;37.534;-122.308;2023-02-18T06:07:29;101743.41;;;3.96;100.00
69058;BME280;56128;37.534;-122.308;2023-02-18T06:09:55;101739.16;;;3.90;100.00
69058;BME280;56128;37.534;-122.308;2023-02-18T06:12:21;101738.41;;;3.86;100.00
69058;BME280;56128;37.534;-122.308;2023-02-18T06:14:48;101737.66;;;3.83;100.00
69058;BME280;56128;37.534;-122.308;2023-02-18T06:17:14;101735.91;;;3.82;100.00
69058;BME280;56128;37.534;-122.308;2023-02-18T06:19:41;101737.72;;;3.80;100.00
69058;BME280;56128;37.534;-122.308;2023-02-18T06:22:07;101738.63;;;3.80;100.00
69058;BME280;56128;37.534;-122.308;2023-02-18T06:24:33;101732.56;;;3.75;100.00
69058;BME280;56128;37.534;-122.308;2023-02-18T06:27:00;101738.03;;;3.70;100.00
69058;BME280;56128;37.534;-122.308;2023-02-18T06:29:26;101746.19;;;3.64;100.00
69058;BME280;56128;37.534;-122.308;2023-02-18T06:31:54;101750.63;;;3.62;100.00
69058;BME280;56128;37.534;-122.308;2023-02-18T06:34:21;101752.44;;;3.62;100.00
69058;BME280;56128;37.534;-122.308;2023-02-18T06:36:49;101750.88;;;3.54;100.00
69058;BME280;56128;37.534;-122.308;2023-02-18T06:39:16;101752.88;;;3.46;100.00
69058;BME280;56128;37.534;-122.308;2023-02-18T06:41:42;101753.00;;;3.43;100.00
69058;BME280;56128;37.534;-122.308;2023-02-18T06:44:09;101748.66;;;3.40;100.00
69058;BME280;56128;37.534;-122.308;2023-02-18T06:46:36;101750.47;;;3.38;100.00
69058;BME280;56128;37.534;-122.308;2023-02-18T06:49:05;101751.50;;;3.34;100.00
69058;BME280;56128;37.534;-122.308;2023-02-18T06:51:31;101751.50;;;3.34;100.00
69058;BME280;56128;37.534;-122.308;2023-02-18T06:53:57;101760.28;;;3.35;100.00
69058;BME280;56128;37.534;-122.308;2023-02-18T06:56:24;101749.69;;;3.35;100.00
69058;BME280;56128;37.534;-122.308;2023-02-18T06:59:10;101751.44;;;3.36;100.00
69058;BME280;56128;37.534;-122.308;2023-02-18T07:01:36;101743.63;;;3.31;100.00
69058;BME280;56128;37.534;-122.308;2023-02-18T07:04:02;101748.91;;;3.31;100.00
69058;BME280;56128;37.534;-122.308;2023-02-18T07:06:28;101748.34;;;3.21;100.00
69058;BME280;56128;37.534;-122.308;2023-02-18T07:08:55;101752.63;;;3.25;100.00
69058;BME280;56128;37.534;-122.308;2023-02-18T07:11:21;101753.59;;;3.23;100.00
69058;BME280;56128;37.534;-122.308;2023-02-18T07:13:47;101758.09;;;3.19;100.00
69058;BME280;56128;37.534;-122.308;2023-02-18T07:16:13;101736.44;;;3.06;100.00
69058;BME280;56128;37.534;-122.308;2023-02-18T07:18:40;101747.81;;;3.10;100.00
69058;BME280;56128;37.534;-122.308;2023-02-18T07:21:06;101745.16;;;3.10;100.00
69058;BME280;56128;37.534;-122.308;2023-02-18T07:23:32;101747.03;;;3.06;100.00
69058;BME280;56128;37.534;-122.308;2023-02-18T07:26:10;101754.06;;;3.06;100.00
69058;BME280;56128;37.534;-122.308;2023-02-18T07:28:37;101756.72;;;3.06;100.00
69058;BME280;56128;37.534;-122.308;2023-02-18T07:31:04;101750.66;;;3.02;100.00
69058;BME280;56128;37.534;-122.308;2023-02-18T07:33:31;101750.66;;;3.02;100.00
69058;BME280;56128;37.534;-122.308;2023-02-18T07:35:59;101751.66;;;2.98;100.00
69058;BME280;56128;37.534;-122.308;2023-02-18T07:38:27;101752.66;;;2.94;100.00
69058;BME280;56128;37.534;-122.308;2023-02-18T07:40:54;101749.13;;;2.95;100.00
69058;BME280;56128;37.534;-122.308;2023-02-18T07:43:21;101737.69;;;2.93;100.00
69058;BME280;56128;37.534;-122.308;2023-02-18T07:45:47;101733.41;;;2.89;100.00
69058;BME280;56128;37.534;-122.308;2023-02-18T07:48:14;101737.97;;;2.84;100.00
69058;BME280;56128;37.534;-122.308;2023-02-18T07:50:42;101745.06;;;2.82;100.00
69058;BME280;56128;37.534;-122.308;2023-02-18T07:53:11;101743.34;;;2.81;100.00
69058;BME280;56128;37.534;-122.308;2023-02-18T07:55:37;101744.34;;;2.76;100.00
69058;BME280;56128;37.534;-122.308;2023-02-18T07:58:19;101744.50;;;2.70;100.00
69058;BME280;56128;37.534;-122.308;2023-02-18T08:00:46;101742.75;;;2.69;100.00
69058;BME280;56128;37.534;-122.308;2023-02-18T08:03:13;101746.31;;;2.68;100.00
69058;BME280;56128;37.534;-122.308;2023-02-18T08:05:40;101748.94;;;2.68;100.00
69058;BME280;56128;37.534;-122.308;2023-02-18T08:08:06;101745.56;;;2.63;100.00
69058;BME280;56128;37.534;-122.308;2023-02-18T08:10:32;101742.88;;;2.66;100.00
69058;BME280;56128;37.534;-122.308;2023-02-18T08:12:58;101750.91;;;2.62;100.00
69058;BME280;56128;37.534;-122.308;2023-02-18T08:15:25;101751.06;;;2.55;100.00
69058;BME280;56128;37.534;-122.308;2023-02-18T08:17:51;101745.84;;;2.54;100.00
69058;BME280;56128;37.534;-122.308;2023-02-18T08:20:18;101749.34;;;2.54;100.00
69058;BME280;56128;37.534;-122.308;2023-02-18T08:22:44;101741.66;;;2.45;100.00
69058;BME280;56128;37.534;-122.308;2023-02-18T08:25:10;101748.63;;;2.48;100.00
69058;BME280;56128;37.534;-122.308;2023-02-18T08:27:36;101747.00;;;2.43;100.00
69058;BME280;56128;37.534;-122.308;2023-02-18T08:30:03;101761.09;;;2.42;100.00
69058;BME280;56128;37.534;-122.308;2023-02-18T08:32:29;101756.78;;;2.38;100.00
69058;BME280;56128;37.534;-122.308;2023-02-18T08:34:56;101757.78;;;2.34;100.00
69058;BME280;56128;37.534;-122.308;2023-02-18T08:37:22;101754.41;;;2.29;100.00
69058;BME280;56128;37.534;-122.308;2023-02-18T08:39:48;101751.84;;;2.26;100.00
69058;BME280;56128;37.534;-122.308;2023-02-18T08:42:14;101735.28;;;2.19;100.00
69058;BME280;56128;37.534;-122.308;2023-02-18T08:44:41;101744.06;;;2.20;100.00
69058;BME280;56128;37.534;-122.308;2023-02-18T08:47:07;101744.22;;;2.14;100.00
69058;BME280;56128;37.534;-122.308;2023-02-18T08:49:33;101750.56;;;2.06;100.00
69058;BME280;56128;37.534;-122.308;2023-02-18T08:52:02;101754.91;;;2.09;100.00
69058;BME280;56128;37.534;-122.308;2023-02-18T08:54:30;101754.06;;;2.07;100.00
69058;BME280;56128;37.534;-122.308;2023-02-18T08:56:56;101751.41;;;2.08;100.00
69058;BME280;56128;37.534;-122.308;2023-02-18T08:59:26;101755.03;;;2.03;100.00
69058;BME280;56128;37.534;-122.308;2023-02-18T09:01:52;101749.91;;;1.97;100.00
69058;BME280;56128;37.534;-122.308;2023-02-18T09:04:19;101751.84;;;1.90;100.00
69058;BME280;56128;37.534;-122.308;2023-02-18T09:06:46;101749.25;;;1.88;100.00
69058;BME280;56128;37.534;-122.308;2023-02-18T09:09:15;101753.69;;;1.86;100.00
69058;BME280;56128;37.534;-122.308;2023-02-18T09:11:43;101757.19;;;1.87;100.00
69058;BME280;56128;37.534;-122.308;2023-02-18T09:14:09;101746.78;;;1.81;100.00
69058;BME280;56128;37.534;-122.308;2023-02-18T09:16:37;101753.84;;;1.80;100.00
69058;BME280;56128;37.534;-122.308;2023-02-18T09:19:03;101748.66;;;1.75;100.00
69058;BME280;56128;37.534;-122.308;2023-02-18T09:21:31;101748.66;;;1.75;100.00
69058;BME280;56128;37.534;-122.308;2023-02-18T09:23:58;101749.69;;;1.70;100.00
69058;BME280;56128;37.534;-122.308;2023-02-18T09:26:25;101747.97;;;1.67;100.00
69058;BME280;56128;37.534;-122.308;2023-02-18T09:28:53;101745.34;;;1.67;100.00
69058;BME280;56128;37.534;-122.308;2023-02-18T09:31:22;101745.34;;;1.67;100.00
69058;BME280;56128;37.534;-122.308;2023-02-18T09:33:52;101746.31;;;1.63;100.00
69058;BME280;56128;37.534;-122.308;2023-02-18T09:36:19;101743.75;;;1.60;100.00
69058;BME280;56128;37.534;-122.308;2023-02-18T09:38:45;101751.56;;;1.63;100.00
69058;BME280;56128;37.534;-122.308;2023-02-18T09:41:41;101748.09;;;1.62;100.00
69058;BME280;56128;37.534;-122.308;2023-02-18T09:46:42;101753.59;;;1.52;100.00
69058;BME280;56128;37.534;-122.308;2023-02-18T09:49:17;101748.34;;;1.50;100.00
69058;BME280;56128;37.534;-122.308;2023-02-18T09:51:44;101755.50;;;1.45;100.00
69058;BME280;56128;37.534;-122.308;2023-02-18T09:54:14;101758.31;;;1.37;100.00
69058;BME280;56128;37.534;-122.308;2023-02-18T09:56:42;101752.28;;;1.32;100.00
69058;BME280;56128;37.534;-122.308;2023-02-18T09:59:19;101762.91;;;1.27;100.00
69058;BME280;56128;37.534;-122.308;2023-02-18T10:01:48;101760.38;;;1.23;100.00
69058;BME280;56128;37.534;-122.308;2023-02-18T10:04:44;101760.41;;;1.21;100.00
69058;BME280;56128;37.534;-122.308;2023-02-18T10:07:31;101760.50;;;1.17;100.00
69058;BME280;56128;37.534;-122.308;2023-02-18T10:10:02;101773.81;;;1.10;100.00
69058;BME280;56128;37.534;-122.308;2023-02-18T10:12:31;101768.59;;;1.07;100.00
69058;BME280;56128;37.534;-122.308;2023-02-18T10:15:01;101761.72;;;1.00;100.00
69058;BME280;56128;37.534;-122.308;2023-02-18T10:17:30;101767.97;;;0.96;100.00
69058;BME280;56128;37.534;-122.308;2023-02-18T10:19:58;101771.47;;;0.95;100.00
69058;BME280;56128;37.534;-122.308;2023-02-18T10:22:25;101769.81;;;0.91;100.00
69058;BME280;56128;37.534;-122.308;2023-02-18T10:24:58;101769.03;;;0.86;100.00
69058;BME280;56128;37.534;-122.308;2023-02-18T10:27:31;101761.25;;;0.79;100.00
69058;BME280;56128;37.534;-122.308;2023-02-18T10:30:39;101755.09;;;0.79;100.00
69058;BME280;56128;37.534;-122.308;2023-02-18T10:41:40;101744.81;;;0.67;100.00
69058;BME280;56128;37.534;-122.308;2023-02-18T10:49:55;101737.03;;;0.59;100.00
69058;BME280;56128;37.534;-122.308;2023-02-18T10:52:23;101725.72;;;0.54;100.00
69058;BME280;56128;37.534;-122.308;2023-02-18T10:57:20;101723.13;;;0.52;100.00
69058;BME280;56128;37.534;-122.308;2023-02-18T10:59:57;101724.91;;;0.52;100.00
69058;BME280;56128;37.534;-122.308;2023-02-18T11:02:27;101727.47;;;0.55;100.00
69058;BME280;56128;37.534;-122.308;2023-02-18T11:04:57;101724.91;;;0.52;100.00
69058;BME280;56128;37.534;-122.308;2023-02-18T11:07:30;101716.97;;;0.53;100.00
69058;BME280;56128;37.534;-122.308;2023-02-18T11:10:07;101696.75;;;0.54;100.00
69058;BME280;56128;37.534;-122.308;2023-02-18T11:12:50;101701.19;;;0.53;100.00
69058;BME280;56128;37.534;-122.308;2023-02-18T11:15:24;101712.41;;;0.61;100.00
69058;BME280;56128;37.534;-122.308;2023-02-18T11:17:57;101710.81;;;0.54;100.00
69058;BME280;56128;37.534;-122.308;2023-02-18T11:20:35;101702.84;;;0.57;100.00
69058;BME280;56128;37.534;-122.308;2023-02-18T11:25:36;101697.69;;;0.51;100.00
69058;BME280;56128;37.534;-122.308;2023-02-18T11:30:56;101689.81;;;0.50;100.00
69058;BME280;56128;37.534;-122.308;2023-02-18T11:33:40;101692.47;;;0.50;100.00
69058;BME280;56128;37.534;-122.308;2023-02-18T11:36:39;101679.25;;;0.51;100.00
69058;BME280;56128;37.534;-122.308;2023-02-18T11:39:14;101685.53;;;0.45;100.00
69058;BME280;56128;37.534;-122.308;2023-02-18T11:42:00;101681.97;;;0.48;100.00
69058;BME280;56128;37.534;-122.308;2023-02-18T11:44:57;101681.19;;;0.41;100.00
69058;BME280;56128;37.534;-122.308;2023-02-18T11:47:42;101686.47;;;0.41;100.00
69058;BME280;56128;37.534;-122.308;2023-02-18T11:52:40;101684.75;;;0.39;100.00
69058;BME280;56128;37.534;-122.308;2023-02-18T11:55:22;101683.06;;;0.36;100.00
69058;BME280;56128;37.534;-122.308;2023-02-18T11:57:57;101689.19;;;0.37;100.00
69058;BME280;56128;37.534;-122.308;2023-02-18T12:00:44;101678.66;;;0.37;100.00
69058;BME280;56128;37.534;-122.308;2023-02-18T12:05:49;101687.47;;;0.36;100.00
69058;BME280;56128;37.534;-122.308;2023-02-18T12:08:27;101688.44;;;0.30;100.00
69058;BME280;56128;37.534;-122.308;2023-02-18T12:11:13;101693.72;;;0.28;100.00
69058;BME280;56128;37.534;-122.308;2023-02-18T12:13:49;101694.69;;;0.24;100.00
69058;BME280;56128;37.534;-122.308;2023-02-18T12:16:35;101692.94;;;0.23;100.00
69058;BME280;56128;37.534;-122.308;2023-02-18T12:22:33;101679.97;;;0.12;100.00
69058;BME280;56128;37.534;-122.308;2023-02-18T12:26:04;101681.81;;;0.07;100.00
69058;BME280;56128;37.534;-122.308;2023-02-18T12:33:33;101683.72;;;-0.01;100.00
69058;BME280;56128;37.534;-122.308;2023-02-18T12:39:16;101685.66;;;-0.11;100.00
69058;BME280;56128;37.534;-122.308;2023-02-18T12:47:27;101697.22;;;-0.21;100.00
69058;BME280;56128;37.534;-122.308;2023-02-18T12:59:15;101716.78;;;-0.39;100.00
69058;BME280;56128;37.534;-122.308;2023-02-18T13:04:43;101713.41;;;-0.47;100.00
69058;BME280;56128;37.534;-122.308;2023-02-18T13:15:17;101696.94;;;-0.62;100.00
69058;BME280;56128;37.534;-122.308;2023-02-18T13:17:48;101686.53;;;-0.68;100.00
69058;BME280;56128;37.534;-122.308;2023-02-18T13:20:45;101686.44;;;-0.62;100.00
69058;BME280;56128;37.534;-122.308;2023-02-18T13:23:31;101696.00;;;-0.56;100.00
69058;BME280;56128;37.534;-122.308;2023-02-18T13:26:02;101698.63;;;-0.58;100.00
69058;BME280;56128;37.534;-122.308;2023-02-18T13:31:35;101693.38;;;-0.58;100.00
69058;BME280;56128;37.534;-122.308;2023-02-18T13:34:14;101698.69;;;-0.61;100.00
69058;BME280;56128;37.534;-122.308;2023-02-18T13:36:54;101708.34;;;-0.61;100.00
69058;BME280;56128;37.534;-122.308;2023-02-18T13:39:23;101702.34;;;-0.71;100.00
69058;BME280;56128;37.534;-122.308;2023-02-18T13:41:51;101702.34;;;-0.71;100.00
69058;BME280;56128;37.534;-122.308;2023-02-18T13:52:48;101684.78;;;-0.69;100.00
69058;BME280;56128;37.534;-122.308;2023-02-18T13:55:21;101686.53;;;-0.68;100.00
69058;BME280;56128;37.534;-122.308;2023-02-18T13:57:52;101684.78;;;-0.68;100.00
69058;BME280;56128;37.534;-122.308;2023-02-18T14:00:25;101692.63;;;-0.64;100.00
69058;BME280;56128;37.534;-122.308;2023-02-18T14:03:18;101693.50;;;-0.64;100.00
69058;BME280;56128;37.534;-122.308;2023-02-18T14:05:45;101694.44;;;-0.70;100.00
69058;BME280;56128;37.534;-122.308;2023-02-18T14:08:14;101708.50;;;-0.72;100.00
69058;BME280;56128;37.534;-122.308;2023-02-18T14:10:41;101698.06;;;-0.78;100.00
69058;BME280;56128;37.534;-122.308;2023-02-18T14:13:37;101702.47;;;-0.80;100.00
69058;BME280;56128;37.534;-122.308;2023-02-18T14:16:06;101704.25;;;-0.83;100.00
69058;BME280;56128;37.534;-122.308;2023-02-18T14:18:56;101700.81;;;-0.86;100.00
69058;BME280;56128;37.534;-122.308;2023-02-18T14:21:43;101707.78;;;-0.84;100.00
69058;BME280;56128;37.534;-122.308;2023-02-18T14:24:10;101720.88;;;-0.79;100.00
69058;BME280;56128;37.534;-122.308;2023-02-18T14:26:47;101722.66;;;-0.83;100.00
69058;BME280;56128;37.534;-122.308;2023-02-18T14:29:26;101701.78;;;-0.93;100.00
69058;BME280;56128;37.534;-122.308;2023-02-18T14:32:02;101713.97;;;-0.88;100.00